createdAt,value
2022-07-25T03:25:03.279Z,98.60
2022-07-25T03:27:33.897Z,99.60
2022-07-25T03:30:04.598Z,98.80
2022-07-25T03:32:35.224Z,97.80
2022-07-25T03:35:05.777Z,96.90
2022-07-25T03:37:36.366Z,97.00
2022-07-25T03:40:08.051Z,96.70
2022-07-25T03:42:38.641Z,96.40
2022-07-25T03:45:09.745Z,96.60
2022-07-25T03:47:40.248Z,96.60
2022-07-25T03:50:11.107Z,96.30
2022-07-25T03:52:41.746Z,96.00
2022-07-25T03:55:13.805Z,95.80
2022-07-25T04:00:31.977Z,95.70
2022-07-25T04:03:02.391Z,94.00
2022-07-25T04:05:33.028Z,94.30
2022-07-25T04:08:03.460Z,95.10
2022-07-25T04:10:35.401Z,94.90
2022-07-25T04:13:06.409Z,94.50
2022-07-25T04:15:37.045Z,95.60
2022-07-25T04:18:09.175Z,95.10
2022-07-25T04:20:47.029Z,94.80
2022-07-25T04:23:17.887Z,95.10
2022-07-25T04:25:48.538Z,94.50
2022-07-25T04:28:18.973Z,92.80
2022-07-25T04:30:49.631Z,93.00
2022-07-25T04:33:21.501Z,92.30
2022-07-25T04:35:52.171Z,92.90
2022-07-25T04:38:22.877Z,92.60
2022-07-25T04:40:54.216Z,93.50
2022-07-25T04:43:25.276Z,93.40
2022-07-25T04:45:56.253Z,93.40
2022-07-25T04:48:26.852Z,93.80
2022-07-25T04:50:57.730Z,93.40
2022-07-25T04:53:28.340Z,92.30
2022-07-25T04:55:58.964Z,93.10
2022-07-25T04:58:29.441Z,92.40
2022-07-25T05:01:00.885Z,91.90
2022-07-25T05:03:31.342Z,93.10
2022-07-25T05:06:01.843Z,92.70
2022-07-25T05:08:32.956Z,92.30
2022-07-25T05:13:49.105Z,93.00
2022-07-25T05:16:19.706Z,92.80
2022-07-25T05:18:51.463Z,92.20
2022-07-25T05:21:21.978Z,92.30
2022-07-25T05:23:53.043Z,92.20
2022-07-25T05:26:24.047Z,92.30
2022-07-25T05:28:54.545Z,92.00
2022-07-25T05:31:25.341Z,91.90
2022-07-25T05:33:55.787Z,92.10
2022-07-25T05:36:26.291Z,91.80
2022-07-25T05:38:56.748Z,91.80
2022-07-25T05:41:27.336Z,92.00
2022-07-25T05:43:57.844Z,92.20
2022-07-25T05:46:28.521Z,92.00
2022-07-25T05:48:59.263Z,92.00
2022-07-25T05:51:30.284Z,91.90
2022-07-25T05:54:00.787Z,91.60
2022-07-25T05:56:32.349Z,91.90
2022-07-25T05:59:02.779Z,91.60
2022-07-25T06:01:33.480Z,91.70
2022-07-25T06:04:04.465Z,91.90
2022-07-25T06:06:35.380Z,92.20
2022-07-25T06:09:08.067Z,92.30
2022-07-25T06:11:48.672Z,91.90
2022-07-25T06:14:25.381Z,92.40
2022-07-25T06:19:42.073Z,92.60
2022-07-25T06:22:13.510Z,92.60
2022-07-25T06:24:45.413Z,92.70
2022-07-25T06:27:20.205Z,92.70
2022-07-25T06:29:51.633Z,93.50
2022-07-25T06:32:24.682Z,92.90
2022-07-25T06:34:55.008Z,93.00
2022-07-25T06:37:25.543Z,92.00
2022-07-25T06:39:55.917Z,92.10
2022-07-25T06:42:26.334Z,92.30
2022-07-25T06:44:56.594Z,92.20
2022-07-25T06:47:26.973Z,91.30
2022-07-25T06:49:57.460Z,91.70
2022-07-25T06:52:27.923Z,91.30
2022-07-25T06:54:58.311Z,91.40
2022-07-25T06:57:28.730Z,91.90
2022-07-25T06:59:59.253Z,91.30
2022-07-25T07:02:29.803Z,91.10
2022-07-25T07:05:00.120Z,91.50
2022-07-25T07:07:30.644Z,91.30
2022-07-25T07:10:01.013Z,91.20
2022-07-25T07:12:31.559Z,90.70
2022-07-25T07:15:02.027Z,90.70
2022-07-25T07:17:32.476Z,90.40
2022-07-25T07:20:02.845Z,90.30
2022-07-25T07:22:34.228Z,90.10
2022-07-25T07:25:04.903Z,91.10
2022-07-25T07:27:36.798Z,90.80
2022-07-25T07:30:07.426Z,87.90
2022-07-25T07:32:40.214Z,90.90
2022-07-25T07:35:11.076Z,89.10
2022-07-25T07:37:43.676Z,89.50
2022-07-25T07:40:18.121Z,90.00
2022-07-25T07:42:51.003Z,91.30
2022-07-25T07:45:25.294Z,90.90
2022-07-25T07:47:58.442Z,91.10
2022-07-25T07:50:30.699Z,91.80
2022-07-25T07:53:01.279Z,92.00
2022-07-25T07:55:47.876Z,92.10
2022-07-25T07:58:20.099Z,91.80
2022-07-25T08:00:54.100Z,91.80
2022-07-25T08:03:24.865Z,91.60
2022-07-25T08:05:55.281Z,91.50
2022-07-25T08:08:30.746Z,91.60
2022-07-25T08:13:48.476Z,91.70
2022-07-25T08:16:19.279Z,91.80
2022-07-25T08:18:49.889Z,91.60
2022-07-25T08:21:20.230Z,91.50
2022-07-25T08:23:51.025Z,91.10
2022-07-25T08:41:50.795Z,90.20
2022-07-25T08:47:36.014Z,89.90
2022-07-25T08:50:18.940Z,89.50
2022-07-25T08:53:04.582Z,89.80
2022-07-25T08:55:56.720Z,88.60
2022-07-25T09:01:34.462Z,90.80
2022-07-25T09:04:18.421Z,91.40
2022-07-25T09:16:11.766Z,90.90
2022-07-25T09:19:23.665Z,91.20
2022-07-25T09:22:10.397Z,91.60
2022-07-25T09:24:49.152Z,90.60
2022-07-25T09:27:45.477Z,90.80
2022-07-25T09:33:50.146Z,91.00
2022-07-25T09:39:46.978Z,91.10
2022-07-25T09:48:23.228Z,92.00
2022-07-25T09:51:32.781Z,92.40
2022-07-25T10:03:34.597Z,92.00
2022-07-25T10:06:35.558Z,92.10
2022-07-25T10:09:28.986Z,91.70
2022-07-25T10:12:16.232Z,92.30
2022-07-25T10:15:17.597Z,92.40
2022-07-25T10:18:14.086Z,92.50
2022-07-25T10:21:29.228Z,93.10
2022-07-25T10:24:35.042Z,93.10
2022-07-25T10:27:26.049Z,92.60
2022-07-25T10:33:00.868Z,93.10
2022-07-25T10:36:10.591Z,92.50
2022-07-25T10:39:11.944Z,92.70
2022-07-25T10:41:46.828Z,92.70
2022-07-25T10:44:21.348Z,92.30
2022-07-25T10:50:58.539Z,92.70
2022-07-25T10:56:28.917Z,93.20
2022-07-25T10:59:04.779Z,93.40
2022-07-25T11:01:42.877Z,93.60
2022-07-25T11:10:56.619Z,93.30
2022-07-25T11:13:47.191Z,93.10
2022-07-25T11:16:32.841Z,92.60
2022-07-25T11:25:35.232Z,94.00
2022-07-25T11:31:47.061Z,93.90
2022-07-25T11:34:57.616Z,94.10
2022-07-25T11:37:47.638Z,94.80
2022-07-25T11:40:44.934Z,94.90
2022-07-25T11:43:26.769Z,95.10
2022-07-25T11:46:14.563Z,94.90
2022-07-25T11:48:45.371Z,95.30
2022-07-25T11:51:54.672Z,95.70
2022-07-25T11:57:48.380Z,95.30
2022-07-25T12:00:57.553Z,95.50
2022-07-25T12:03:28.018Z,95.90
2022-07-25T12:06:17.947Z,95.90
2022-07-25T12:12:07.952Z,96.00
2022-07-25T12:19:08.241Z,95.40
2022-07-25T12:24:53.270Z,95.90
2022-07-25T12:33:45.502Z,97.00
2022-07-25T12:36:16.081Z,97.50
2022-07-25T12:38:46.537Z,97.90
2022-07-25T12:41:18.901Z,98.30
2022-07-25T12:43:53.065Z,98.30
2022-07-25T12:49:11.557Z,98.30
2022-07-25T12:51:57.892Z,98.40
2022-07-25T12:57:42.754Z,98.00
2022-07-25T13:00:16.451Z,97.70
2022-07-25T13:09:50.557Z,98.10
2022-07-25T13:22:03.077Z,97.40
2022-07-25T13:30:51.201Z,98.40
2022-07-25T13:48:50.623Z,99.30
2022-07-25T13:51:20.958Z,98.90
2022-07-25T13:53:51.318Z,98.50
2022-07-25T13:59:36.795Z,98.00
2022-07-25T14:02:26.598Z,98.80
2022-07-25T14:05:05.121Z,98.90
2022-07-25T14:07:50.447Z,98.60
2022-07-25T14:10:40.347Z,98.30
2022-07-25T14:13:41.489Z,98.50
2022-07-25T14:19:51.941Z,98.60
2022-07-25T14:32:18.393Z,98.60
2022-07-25T14:41:06.708Z,98.40
2022-07-25T14:43:54.879Z,98.60
2022-07-25T14:46:36.590Z,98.70
2022-07-25T14:49:31.093Z,98.60
2022-07-25T14:52:01.549Z,98.20
2022-07-25T14:57:57.295Z,98.20
2022-07-25T15:03:14.986Z,98.20
2022-07-25T15:05:57.926Z,98.10
2022-07-25T15:08:48.676Z,97.90
2022-07-25T15:11:19.110Z,98.00
2022-07-25T15:16:49.414Z,97.90
2022-07-25T15:22:21.627Z,98.40
2022-07-25T15:28:40.514Z,98.80
2022-07-25T15:31:10.888Z,98.30
2022-07-25T15:33:41.336Z,98.30
2022-07-25T15:39:56.068Z,98.30
2022-07-25T15:42:46.390Z,98.60
2022-07-25T15:48:54.430Z,98.10
2022-07-25T15:51:27.195Z,98.00
2022-07-25T15:53:58.389Z,98.00
2022-07-25T15:59:53.669Z,98.10
2022-07-25T16:05:46.171Z,98.00
2022-07-25T16:11:23.681Z,98.00
2022-07-25T16:14:04.768Z,98.20
2022-07-25T16:16:56.388Z,98.10
2022-07-25T16:20:05.561Z,98.10
2022-07-25T16:22:36.559Z,98.10
2022-07-25T16:25:27.005Z,98.00
2022-07-25T16:28:36.220Z,97.70
2022-07-25T16:31:07.494Z,98.00
2022-07-25T16:36:39.923Z,97.80
2022-07-25T16:39:10.020Z,98.30
2022-07-25T16:48:16.018Z,98.10
2022-07-25T16:54:11.023Z,98.90
2022-07-25T17:06:02.287Z,99.10
2022-07-25T17:08:46.604Z,99.30
2022-07-25T17:11:16.931Z,99.70
2022-07-25T17:13:55.517Z,99.10
2022-07-25T17:16:26.224Z,99.30
2022-07-25T17:23:04.566Z,99.60
2022-07-25T17:26:07.961Z,99.60
2022-07-25T17:28:45.160Z,99.70
2022-07-25T17:31:18.906Z,99.80
2022-07-25T17:33:49.624Z,99.70
2022-07-25T17:36:22.510Z,99.60
2022-07-25T17:50:51.904Z,99.40
2022-07-25T17:56:44.141Z,99.90
2022-07-25T18:12:02.080Z,99.90
2022-07-25T18:15:11.767Z,99.70
2022-07-25T18:18:01.501Z,99.90
2022-07-25T18:26:26.249Z,99.90
2022-07-25T18:36:37.401Z,99.90
2022-07-25T18:39:12.305Z,99.90
2022-07-25T18:44:53.453Z,99.90
2022-07-25T18:52:58.430Z,99.90
2022-07-25T18:56:03.775Z,99.90
2022-07-25T18:58:53.508Z,99.90
2022-07-25T19:01:24.761Z,99.90
2022-07-25T19:12:36.398Z,99.90
2022-07-25T19:17:54.836Z,99.90
2022-07-25T19:23:33.218Z,99.90
2022-07-25T19:29:36.746Z,99.90
2022-07-25T19:32:08.413Z,99.90
2022-07-25T19:37:46.645Z,99.90
2022-07-25T19:43:42.083Z,99.90
2022-07-25T19:53:00.520Z,99.90
2022-07-25T20:04:18.126Z,99.90
2022-07-25T20:06:48.422Z,99.90
2022-07-25T20:09:18.980Z,99.90
2022-07-25T20:11:49.389Z,99.90
2022-07-25T20:14:19.689Z,99.90
2022-07-25T20:16:57.727Z,99.90
2022-07-25T20:44:00.977Z,99.90
2022-07-25T20:46:31.702Z,99.90
2022-07-25T20:49:25.427Z,99.90
2022-07-25T20:51:55.830Z,99.90
2022-07-25T20:54:44.628Z,99.90
2022-07-25T21:05:46.900Z,99.90
2022-07-25T21:08:19.781Z,99.90
2022-07-25T21:10:50.056Z,99.90
2022-07-25T21:16:13.474Z,99.90
2022-07-25T21:18:46.716Z,99.90
2022-07-25T21:21:17.527Z,99.90
2022-07-25T21:26:35.328Z,99.90
2022-07-25T21:29:14.782Z,99.90
2022-07-25T21:35:20.589Z,99.90
2022-07-25T21:37:52.676Z,99.90
2022-07-25T21:40:22.907Z,99.90
2022-07-25T21:48:51.491Z,99.90
2022-07-25T22:00:06.939Z,99.90
2022-07-25T22:05:43.191Z,99.90
2022-07-25T22:08:14.782Z,99.90
2022-07-25T22:13:31.432Z,99.90
2022-07-25T22:16:34.725Z,99.90
2022-07-25T22:22:08.841Z,99.90
2022-07-25T22:24:41.954Z,99.90
2022-07-25T22:30:20.116Z,99.90
2022-07-25T22:36:13.707Z,99.90
2022-07-25T22:41:27.717Z,99.90
2022-07-25T22:43:59.973Z,99.90
2022-07-25T22:49:53.079Z,99.90
2022-07-25T22:52:25.304Z,99.90
2022-07-25T22:54:56.023Z,99.90
2022-07-25T22:57:30.345Z,99.90
2022-07-25T23:02:54.556Z,99.90
2022-07-25T23:05:26.963Z,99.90
2022-07-25T23:13:23.005Z,99.90
2022-07-25T23:19:04.612Z,99.90
2022-07-25T23:21:36.620Z,99.90
2022-07-25T23:24:09.454Z,99.90
2022-07-25T23:26:39.736Z,99.90
2022-07-25T23:29:10.104Z,99.90
2022-07-25T23:34:24.343Z,99.90
2022-07-25T23:37:14.207Z,99.90
2022-07-25T23:42:46.615Z,99.90
